sensor_id;sensor_type;location;lat;lon;timestamp;pressure;altitude;pressure_sealevel;temperature;humidity
40982;BME280;26708;50.304;19.028;2022-07-29T00:02:43;98676.03;;;21.44;51.22
40982;BME280;26708;50.304;19.028;2022-07-29T00:05:43;98678.84;;;21.40;50.98
40982;BME280;26708;50.304;19.028;2022-07-29T00:08:44;98678.16;;;21.33;50.96
40982;BME280;26708;50.304;19.028;2022-07-29T00:11:46;98669.88;;;21.16;50.99
40982;BME280;26708;50.304;19.028;2022-07-29T00:14:47;98665.94;;;21.00;51.02
40982;BME280;26708;50.304;19.028;2022-07-29T00:17:48;98664.38;;;20.93;51.08
40982;BME280;26708;50.304;19.028;2022-07-29T00:20:49;98661.75;;;20.93;50.98
40982;BME280;26708;50.304;19.028;2022-07-29T00:23:49;98658.22;;;20.93;50.80
40982;BME280;26708;50.304;19.028;2022-07-29T00:26:50;98667.97;;;20.91;50.09
40982;BME280;26708;50.304;19.028;2022-07-29T00:29:51;98666.25;;;20.90;50.25
40982;BME280;26708;50.304;19.028;2022-07-29T00:32:52;98660.03;;;20.91;49.91
40982;BME280;26708;50.304;19.028;2022-07-29T00:35:52;98651.22;;;20.90;49.91
40982;BME280;26708;50.304;19.028;2022-07-29T00:38:53;98648.63;;;20.89;50.08
40982;BME280;26708;50.304;19.028;2022-07-29T00:41:54;98656.47;;;20.92;50.06
40982;BME280;26708;50.304;19.028;2022-07-29T00:44:55;98647.75;;;20.88;49.62
40982;BME280;26708;50.304;19.028;2022-07-29T00:47:56;98645.31;;;20.81;49.63
40982;BME280;26708;50.304;19.028;2022-07-29T00:50:58;98658.56;;;20.79;50.19
40982;BME280;26708;50.304;19.028;2022-07-29T00:53:59;98651.47;;;20.80;49.94
40982;BME280;26708;50.304;19.028;2022-07-29T00:57:02;98654.34;;;20.74;49.73
40982;BME280;26708;50.304;19.028;2022-07-29T01:00:08;98659.53;;;20.77;49.82
40982;BME280;26708;50.304;19.028;2022-07-29T01:03:09;98641.94;;;20.74;49.70
40982;BME280;26708;50.304;19.028;2022-07-29T01:06:10;98647.34;;;20.71;49.88
40982;BME280;26708;50.304;19.028;2022-07-29T01:09:11;98636.88;;;20.67;49.71
40982;BME280;26708;50.304;19.028;2022-07-29T01:12:16;98648.38;;;20.66;49.85
40982;BME280;26708;50.304;19.028;2022-07-29T01:15:17;98653.69;;;20.66;49.58
40982;BME280;26708;50.304;19.028;2022-07-29T01:18:34;98635.38;;;20.57;49.74
40982;BME280;26708;50.304;19.028;2022-07-29T01:21:53;98632.81;;;20.55;49.76
40982;BME280;26708;50.304;19.028;2022-07-29T01:25:19;98632.81;;;20.55;49.40
40982;BME280;26708;50.304;19.028;2022-07-29T01:32:04;98636.63;;;20.45;49.04
40982;BME280;26708;50.304;19.028;2022-07-29T01:38:12;98627.84;;;20.43;49.24
40982;BME280;26708;50.304;19.028;2022-07-29T01:41:17;98629.84;;;20.35;48.76
40982;BME280;26708;50.304;19.028;2022-07-29T01:44:30;98607.16;;;20.27;48.62
40982;BME280;26708;50.304;19.028;2022-07-29T01:48:15;98627.03;;;20.41;48.67
40982;BME280;26708;50.304;19.028;2022-07-29T01:51:19;98627.91;;;20.42;48.54
40982;BME280;26708;50.304;19.028;2022-07-29T01:54:40;98624.34;;;20.43;48.54
40982;BME280;26708;50.304;19.028;2022-07-29T01:57:49;98616.41;;;20.43;48.15
40982;BME280;26708;50.304;19.028;2022-07-29T02:00:51;98592.09;;;20.30;48.06
40982;BME280;26708;50.304;19.028;2022-07-29T02:03:55;98603.22;;;20.41;48.04
40982;BME280;26708;50.304;19.028;2022-07-29T02:07:02;98589.25;;;20.36;48.08
40982;BME280;26708;50.304;19.028;2022-07-29T02:10:05;98585.69;;;20.37;47.87
40982;BME280;26708;50.304;19.028;2022-07-29T02:13:09;98606.50;;;20.49;47.50
40982;BME280;26708;50.304;19.028;2022-07-29T02:16:12;98585.69;;;20.37;47.35
40982;BME280;26708;50.304;19.028;2022-07-29T02:19:13;98608.50;;;20.41;47.75
40982;BME280;26708;50.304;19.028;2022-07-29T02:22:18;98613.69;;;20.44;47.67
40982;BME280;26708;50.304;19.028;2022-07-29T02:25:21;98604.88;;;20.45;47.46
40982;BME280;26708;50.304;19.028;2022-07-29T02:28:25;98611.16;;;20.41;47.34
40982;BME280;26708;50.304;19.028;2022-07-29T02:31:31;98605.03;;;20.39;47.63
40982;BME280;26708;50.304;19.028;2022-07-29T02:34:33;98604.09;;;20.42;47.66
40982;BME280;26708;50.304;19.028;2022-07-29T02:37:36;98598.69;;;20.46;47.37
40982;BME280;26708;50.304;19.028;2022-07-29T02:40:38;98606.63;;;20.46;47.38
40982;BME280;26708;50.304;19.028;2022-07-29T02:43:41;98603.97;;;20.46;47.46
40982;BME280;26708;50.304;19.028;2022-07-29T02:46:51;98600.47;;;20.44;47.61
40982;BME280;26708;50.304;19.028;2022-07-29T02:50:00;98589.81;;;20.47;47.37
40982;BME280;26708;50.304;19.028;2022-07-29T02:53:14;98576.78;;;20.40;47.53
40982;BME280;26708;50.304;19.028;2022-07-29T02:56:18;98584.47;;;20.49;47.37
40982;BME280;26708;50.304;19.028;2022-07-29T02:59:26;98586.28;;;20.47;47.34
40982;BME280;26708;50.304;19.028;2022-07-29T03:02:28;98587.22;;;20.46;47.48
40982;BME280;26708;50.304;19.028;2022-07-29T03:05:33;98596.69;;;20.54;48.02
40982;BME280;26708;50.304;19.028;2022-07-29T03:08:35;98595.63;;;20.60;47.36
40982;BME280;26708;50.304;19.028;2022-07-29T03:11:37;98587.72;;;20.58;47.68
40982;BME280;26708;50.304;19.028;2022-07-29T03:14:39;98597.88;;;20.73;47.28
40982;BME280;26708;50.304;19.028;2022-07-29T03:17:40;98597.69;;;20.79;46.89
40982;BME280;26708;50.304;19.028;2022-07-29T03:20:41;98584.53;;;20.76;47.01
40982;BME280;26708;50.304;19.028;2022-07-29T03:23:45;98588.09;;;20.75;47.01
40982;BME280;26708;50.304;19.028;2022-07-29T03:26:46;98584.63;;;20.73;47.05
40982;BME280;26708;50.304;19.028;2022-07-29T03:29:47;98581.38;;;20.64;47.20
40982;BME280;26708;50.304;19.028;2022-07-29T03:32:48;98586.75;;;20.62;47.12
40982;BME280;26708;50.304;19.028;2022-07-29T03:35:49;98583.44;;;20.54;47.52
40982;BME280;26708;50.304;19.028;2022-07-29T03:38:50;98581.78;;;20.50;47.87
40982;BME280;26708;50.304;19.028;2022-07-29T03:41:53;98589.53;;;20.58;48.26
40982;BME280;26708;50.304;19.028;2022-07-29T03:44:56;98586.94;;;20.55;47.68
40982;BME280;26708;50.304;19.028;2022-07-29T03:48:05;98586.81;;;20.59;48.25
40982;BME280;26708;50.304;19.028;2022-07-29T03:51:07;98590.06;;;20.69;48.18
40982;BME280;26708;50.304;19.028;2022-07-29T03:54:08;98584.81;;;20.67;48.05
40982;BME280;26708;50.304;19.028;2022-07-29T03:57:10;98583.88;;;20.68;48.21
40982;BME280;26708;50.304;19.028;2022-07-29T04:00:12;98577.00;;;20.63;47.87
40982;BME280;26708;50.304;19.028;2022-07-29T04:03:13;98574.66;;;20.52;48.55
40982;BME280;26708;50.304;19.028;2022-07-29T04:06:14;98575.56;;;20.51;48.85
40982;BME280;26708;50.304;19.028;2022-07-29T04:09:14;98581.00;;;20.47;49.10
40982;BME280;26708;50.304;19.028;2022-07-29T04:12:15;98567.84;;;20.45;48.79
40982;BME280;26708;50.304;19.028;2022-07-29T04:15:16;98574.09;;;20.43;48.89
40982;BME280;26708;50.304;19.028;2022-07-29T04:18:16;98592.34;;;20.52;49.00
40982;BME280;26708;50.304;19.028;2022-07-29T04:21:17;98580.16;;;20.46;49.46
40982;BME280;26708;50.304;19.028;2022-07-29T04:24:18;98585.34;;;20.49;49.50
40982;BME280;26708;50.304;19.028;2022-07-29T04:27:18;98587.84;;;20.54;49.23
40982;BME280;26708;50.304;19.028;2022-07-29T04:30:19;98585.13;;;20.57;49.12
40982;BME280;26708;50.304;19.028;2022-07-29T04:33:20;98597.25;;;20.64;48.81
40982;BME280;26708;50.304;19.028;2022-07-29T04:36:20;98591.94;;;20.65;48.98
40982;BME280;26708;50.304;19.028;2022-07-29T04:39:21;98588.31;;;20.69;49.14
40982;BME280;26708;50.304;19.028;2022-07-29T04:42:22;98589.72;;;20.81;49.01
40982;BME280;26708;50.304;19.028;2022-07-29T04:45:22;98576.56;;;20.78;48.89
40982;BME280;26708;50.304;19.028;2022-07-29T04:48:23;98589.59;;;20.85;48.83
40982;BME280;26708;50.304;19.028;2022-07-29T04:51:24;98576.38;;;20.84;48.95
40982;BME280;26708;50.304;19.028;2022-07-29T04:54:24;98578.59;;;20.99;49.17
40982;BME280;26708;50.304;19.028;2022-07-29T04:57:25;98580.97;;;21.08;48.71
40982;BME280;26708;50.304;19.028;2022-07-29T05:00:26;98576.72;;;21.02;48.97
40982;BME280;26708;50.304;19.028;2022-07-29T05:03:26;98565.19;;;21.05;49.07
40982;BME280;26708;50.304;19.028;2022-07-29T05:06:27;98564.97;;;21.11;49.05
40982;BME280;26708;50.304;19.028;2022-07-29T05:09:28;98565.94;;;21.08;49.42
40982;BME280;26708;50.304;19.028;2022-07-29T05:12:28;98572.69;;;21.18;49.40
40982;BME280;26708;50.304;19.028;2022-07-29T05:15:29;98581.38;;;21.23;50.00
40982;BME280;26708;50.304;19.028;2022-07-29T05:18:30;98573.31;;;21.26;49.74
40982;BME280;26708;50.304;19.028;2022-07-29T05:21:31;98572.16;;;21.35;49.85
40982;BME280;26708;50.304;19.028;2022-07-29T05:24:31;98579.72;;;21.45;49.50
40982;BME280;26708;50.304;19.028;2022-07-29T05:27:32;98579.56;;;21.50;49.29
40982;BME280;26708;50.304;19.028;2022-07-29T05:30:33;98582.88;;;21.58;49.48
40982;BME280;26708;50.304;19.028;2022-07-29T05:33:33;98570.44;;;21.60;49.24
40982;BME280;26708;50.304;19.028;2022-07-29T05:36:34;98580.72;;;21.70;49.66
40982;BME280;26708;50.304;19.028;2022-07-29T05:39:35;98572.44;;;21.79;49.65
40982;BME280;26708;50.304;19.028;2022-07-29T05:42:36;98566.44;;;21.74;49.64
40982;BME280;26708;50.304;19.028;2022-07-29T05:45:38;98569.69;;;21.82;49.84
40982;BME280;26708;50.304;19.028;2022-07-29T05:48:39;98573.06;;;21.87;49.78
40982;BME280;26708;50.304;19.028;2022-07-29T05:51:40;98570.31;;;21.89;49.90
40982;BME280;26708;50.304;19.028;2022-07-29T05:54:40;98567.38;;;21.98;49.69
40982;BME280;26708;50.304;19.028;2022-07-29T05:57:41;98567.38;;;21.98;49.73
40982;BME280;26708;50.304;19.028;2022-07-29T06:00:44;98558.06;;;21.86;50.11
40982;BME280;26708;50.304;19.028;2022-07-29T06:03:45;98558.06;;;21.86;50.35
40982;BME280;26708;50.304;19.028;2022-07-29T06:06:45;98555.19;;;21.92;50.26
40982;BME280;26708;50.304;19.028;2022-07-29T06:09:46;98555.78;;;22.00;50.28
40982;BME280;26708;50.304;19.028;2022-07-29T06:12:47;98555.47;;;22.09;49.98
40982;BME280;26708;50.304;19.028;2022-07-29T06:15:48;98555.03;;;22.21;49.90
40982;BME280;26708;50.304;19.028;2022-07-29T06:18:48;98556.50;;;22.30;49.89
40982;BME280;26708;50.304;19.028;2022-07-29T06:21:49;98564.06;;;22.40;49.30
40982;BME280;26708;50.304;19.028;2022-07-29T06:24:50;98558.66;;;22.43;49.63
40982;BME280;26708;50.304;19.028;2022-07-29T06:27:51;98562.84;;;22.50;49.60
40982;BME280;26708;50.304;19.028;2022-07-29T06:30:52;98568.69;;;22.60;49.44
40982;BME280;26708;50.304;19.028;2022-07-29T06:33:53;98584.22;;;22.70;49.32
40982;BME280;26708;50.304;19.028;2022-07-29T06:36:54;98573.06;;;22.84;49.07
40982;BME280;26708;50.304;19.028;2022-07-29T06:39:55;98574.28;;;22.97;48.87
40982;BME280;26708;50.304;19.028;2022-07-29T06:43:24;98575.38;;;23.14;48.80
40982;BME280;26708;50.304;19.028;2022-07-29T06:46:26;98578.44;;;23.27;48.63
40982;BME280;26708;50.304;19.028;2022-07-29T06:49:28;98575.78;;;23.27;48.29
40982;BME280;26708;50.304;19.028;2022-07-29T06:52:29;98564.13;;;23.31;48.56
40982;BME280;26708;50.304;19.028;2022-07-29T06:55:30;98565.47;;;23.41;47.89
40982;BME280;26708;50.304;19.028;2022-07-29T06:58:31;98562.38;;;23.51;47.96
40982;BME280;26708;50.304;19.028;2022-07-29T07:01:32;98569.78;;;23.65;47.35
40982;BME280;26708;50.304;19.028;2022-07-29T07:04:33;98572.50;;;23.63;47.40
40982;BME280;26708;50.304;19.028;2022-07-29T07:07:34;98567.19;;;23.63;47.66
40982;BME280;26708;50.304;19.028;2022-07-29T07:10:34;98561.75;;;23.66;47.46
40982;BME280;26708;50.304;19.028;2022-07-29T07:13:35;98549.38;;;23.65;47.72
40982;BME280;26708;50.304;19.028;2022-07-29T07:16:36;98551.66;;;23.74;47.66
40982;BME280;26708;50.304;19.028;2022-07-29T07:19:37;98565.19;;;23.89;47.82
40982;BME280;26708;50.304;19.028;2022-07-29T07:22:37;98568.59;;;23.93;47.25
40982;BME280;26708;50.304;19.028;2022-07-29T07:25:39;98555.66;;;23.84;47.39
40982;BME280;26708;50.304;19.028;2022-07-29T07:28:40;98571.34;;;23.92;47.87
40982;BME280;26708;50.304;19.028;2022-07-29T07:31:40;98566.66;;;23.96;47.77
40982;BME280;26708;50.304;19.028;2022-07-29T07:34:42;98574.75;;;23.95;48.32
40982;BME280;26708;50.304;19.028;2022-07-29T07:37:43;98568.38;;;23.97;48.26
40982;BME280;26708;50.304;19.028;2022-07-29T07:40:44;98555.91;;;23.99;48.44
40982;BME280;26708;50.304;19.028;2022-07-29T07:43:48;98557.38;;;24.06;48.24
40982;BME280;26708;50.304;19.028;2022-07-29T07:46:49;98557.91;;;24.14;48.57
40982;BME280;26708;50.304;19.028;2022-07-29T07:49:50;98554.44;;;24.32;48.88
40982;BME280;26708;50.304;19.028;2022-07-29T07:52:53;98564.88;;;24.57;47.94
40982;BME280;26708;50.304;19.028;2022-07-29T07:55:55;98542.00;;;24.71;48.07
40982;BME280;26708;50.304;19.028;2022-07-29T07:58:56;98555.28;;;24.91;46.79
40982;BME280;26708;50.304;19.028;2022-07-29T08:01:57;98550.72;;;24.93;46.34
40982;BME280;26708;50.304;19.028;2022-07-29T08:04:57;98543.56;;;24.94;46.41
40982;BME280;26708;50.304;19.028;2022-07-29T08:07:59;98559.78;;;25.08;46.54
40982;BME280;26708;50.304;19.028;2022-07-29T08:11:00;98552.56;;;25.10;46.30
40982;BME280;26708;50.304;19.028;2022-07-29T08:14:02;98567.88;;;25.25;46.30
40982;BME280;26708;50.304;19.028;2022-07-29T08:17:05;98563.88;;;25.15;45.51
40982;BME280;26708;50.304;19.028;2022-07-29T08:20:06;98550.06;;;25.07;46.03
40982;BME280;26708;50.304;19.028;2022-07-29T08:23:07;98560.56;;;25.10;46.22
40982;BME280;26708;50.304;19.028;2022-07-29T08:26:12;98564.19;;;25.09;46.42
40982;BME280;26708;50.304;19.028;2022-07-29T08:29:13;98557.19;;;25.06;46.65
40982;BME280;26708;50.304;19.028;2022-07-29T08:32:14;98546.47;;;25.08;46.92
40982;BME280;26708;50.304;19.028;2022-07-29T08:35:15;98545.75;;;25.04;46.51
40982;BME280;26708;50.304;19.028;2022-07-29T08:38:16;98558.41;;;25.18;46.89
40982;BME280;26708;50.304;19.028;2022-07-29T08:41:18;98546.47;;;25.26;46.59
40982;BME280;26708;50.304;19.028;2022-07-29T08:44:20;98552.25;;;25.36;46.28
40982;BME280;26708;50.304;19.028;2022-07-29T08:47:22;98552.00;;;25.40;45.88
40982;BME280;26708;50.304;19.028;2022-07-29T08:50:23;98559.72;;;25.46;45.78
40982;BME280;26708;50.304;19.028;2022-07-29T08:53:26;98554.00;;;25.54;45.89
40982;BME280;26708;50.304;19.028;2022-07-29T08:56:28;98559.19;;;25.57;45.73
40982;BME280;26708;50.304;19.028;2022-07-29T08:59:31;98558.38;;;25.55;45.58
40982;BME280;26708;50.304;19.028;2022-07-29T09:02:39;98548.34;;;25.60;45.76
40982;BME280;26708;50.304;19.028;2022-07-29T09:05:45;98554.25;;;25.66;45.63
40982;BME280;26708;50.304;19.028;2022-07-29T09:08:46;98553.00;;;25.73;45.41
40982;BME280;26708;50.304;19.028;2022-07-29T09:11:47;98555.38;;;25.79;45.44
40982;BME280;26708;50.304;19.028;2022-07-29T09:14:48;98556.72;;;25.88;45.44
40982;BME280;26708;50.304;19.028;2022-07-29T09:17:49;98542.28;;;25.92;45.00
40982;BME280;26708;50.304;19.028;2022-07-29T09:20:53;98537.44;;;26.00;44.66
40982;BME280;26708;50.304;19.028;2022-07-29T09:24:13;98541.44;;;26.08;44.15
40982;BME280;26708;50.304;19.028;2022-07-29T09:27:23;98543.69;;;26.16;44.19
40982;BME280;26708;50.304;19.028;2022-07-29T09:30:52;98534.84;;;26.15;43.95
40982;BME280;26708;50.304;19.028;2022-07-29T09:34:05;98534.50;;;26.21;44.45
40982;BME280;26708;50.304;19.028;2022-07-29T09:37:26;98497.53;;;26.14;44.18
40982;BME280;26708;50.304;19.028;2022-07-29T09:40:28;98497.81;;;26.25;43.64
40982;BME280;26708;50.304;19.028;2022-07-29T09:43:31;98525.41;;;26.41;43.89
40982;BME280;26708;50.304;19.028;2022-07-29T09:46:32;98521.47;;;26.48;43.56
40982;BME280;26708;50.304;19.028;2022-07-29T10:02:33;98513.09;;;26.55;43.47
40982;BME280;26708;50.304;19.028;2022-07-29T10:05:35;98504.91;;;26.58;42.99
40982;BME280;26708;50.304;19.028;2022-07-29T10:08:37;98490.00;;;26.54;42.70
40982;BME280;26708;50.304;19.028;2022-07-29T10:11:39;98453.03;;;26.45;42.90
40982;BME280;26708;50.304;19.028;2022-07-29T10:14:41;98466.13;;;26.67;42.76
40982;BME280;26708;50.304;19.028;2022-07-29T10:17:44;98498.56;;;26.92;42.64
40982;BME280;26708;50.304;19.028;2022-07-29T10:20:46;98464.34;;;26.83;42.47
40982;BME280;26708;50.304;19.028;2022-07-29T10:23:47;98491.41;;;27.08;42.00
40982;BME280;26708;50.304;19.028;2022-07-29T10:26:51;98492.19;;;27.10;41.83
40982;BME280;26708;50.304;19.028;2022-07-29T10:29:55;98448.81;;;26.89;41.48
40982;BME280;26708;50.304;19.028;2022-07-29T10:33:18;98496.56;;;27.11;41.73
40982;BME280;26708;50.304;19.028;2022-07-29T10:36:30;98492.38;;;27.07;42.42
40982;BME280;26708;50.304;19.028;2022-07-29T10:40:00;98496.16;;;27.03;41.74
40982;BME280;26708;50.304;19.028;2022-07-29T10:43:28;98482.09;;;26.99;42.66
40982;BME280;26708;50.304;19.028;2022-07-29T10:46:35;98467.03;;;27.14;42.30
40982;BME280;26708;50.304;19.028;2022-07-29T10:49:37;98457.78;;;27.19;41.87
40982;BME280;26708;50.304;19.028;2022-07-29T10:55:53;98472.81;;;27.51;41.46
40982;BME280;26708;50.304;19.028;2022-07-29T11:05:54;98491.53;;;27.67;40.66
40982;BME280;26708;50.304;19.028;2022-07-29T11:09:15;98486.19;;;27.67;41.05
40982;BME280;26708;50.304;19.028;2022-07-29T11:15:53;98475.09;;;27.73;41.25
40982;BME280;26708;50.304;19.028;2022-07-29T11:22:33;98468.84;;;27.88;40.65
40982;BME280;26708;50.304;19.028;2022-07-29T11:25:35;98470.97;;;27.83;40.37
40982;BME280;26708;50.304;19.028;2022-07-29T11:31:51;98438.75;;;27.69;40.98
40982;BME280;26708;50.304;19.028;2022-07-29T11:35:28;98470.56;;;27.89;40.64
40982;BME280;26708;50.304;19.028;2022-07-29T11:38:30;98468.47;;;27.94;40.32
40982;BME280;26708;50.304;19.028;2022-07-29T11:41:37;98461.00;;;27.85;40.33
40982;BME280;26708;50.304;19.028;2022-07-29T11:48:18;98465.53;;;27.98;39.88
40982;BME280;26708;50.304;19.028;2022-07-29T11:51:20;98465.59;;;27.97;39.57
40982;BME280;26708;50.304;19.028;2022-07-29T11:54:32;98474.81;;;28.07;39.90
40982;BME280;26708;50.304;19.028;2022-07-29T11:57:36;98427.25;;;27.82;39.66
40982;BME280;26708;50.304;19.028;2022-07-29T12:00:40;98447.44;;;28.02;39.75
40982;BME280;26708;50.304;19.028;2022-07-29T12:03:43;98411.09;;;27.84;39.74
40982;BME280;26708;50.304;19.028;2022-07-29T12:06:52;98464.38;;;28.16;38.67
40982;BME280;26708;50.304;19.028;2022-07-29T12:09:54;98427.84;;;28.01;39.17
40982;BME280;26708;50.304;19.028;2022-07-29T12:12:59;98425.72;;;27.92;39.39
40982;BME280;26708;50.304;19.028;2022-07-29T12:16:00;98475.22;;;28.15;39.48
40982;BME280;26708;50.304;19.028;2022-07-29T12:19:03;98467.47;;;28.10;39.58
40982;BME280;26708;50.304;19.028;2022-07-29T12:22:05;98404.91;;;27.68;39.41
40982;BME280;26708;50.304;19.028;2022-07-29T12:25:08;98455.19;;;28.06;39.00
40982;BME280;26708;50.304;19.028;2022-07-29T12:28:12;98461.63;;;28.18;39.58
40982;BME280;26708;50.304;19.028;2022-07-29T12:31:15;98430.53;;;28.01;38.99
40982;BME280;26708;50.304;19.028;2022-07-29T12:34:16;98458.50;;;28.25;39.22
40982;BME280;26708;50.304;19.028;2022-07-29T12:37:17;98459.34;;;28.26;39.24
40982;BME280;26708;50.304;19.028;2022-07-29T12:40:20;98456.66;;;28.26;39.01
40982;BME280;26708;50.304;19.028;2022-07-29T12:43:23;98444.59;;;28.19;39.45
40982;BME280;26708;50.304;19.028;2022-07-29T12:46:28;98407.28;;;28.02;39.16
40982;BME280;26708;50.304;19.028;2022-07-29T12:49:29;98474.06;;;28.33;38.85
40982;BME280;26708;50.304;19.028;2022-07-29T12:52:34;98470.44;;;28.33;39.00
40982;BME280;26708;50.304;19.028;2022-07-29T12:55:44;98408.53;;;27.96;39.38
40982;BME280;26708;50.304;19.028;2022-07-29T12:58:49;98448.06;;;28.21;39.43
40982;BME280;26708;50.304;19.028;2022-07-29T13:01:51;98423.94;;;28.07;38.73
40982;BME280;26708;50.304;19.028;2022-07-29T13:05:00;98407.94;;;28.05;38.89
40982;BME280;26708;50.304;19.028;2022-07-29T13:08:16;98405.28;;;28.05;39.18
40982;BME280;26708;50.304;19.028;2022-07-29T13:14:35;98392.75;;;28.06;38.90
40982;BME280;26708;50.304;19.028;2022-07-29T13:17:41;98440.69;;;28.38;38.10
40982;BME280;26708;50.304;19.028;2022-07-29T13:20:43;98428.59;;;28.31;39.17
40982;BME280;26708;50.304;19.028;2022-07-29T13:23:44;98389.59;;;28.13;39.21
40982;BME280;26708;50.304;19.028;2022-07-29T13:26:45;98413.50;;;28.30;39.81
40982;BME280;26708;50.304;19.028;2022-07-29T13:29:46;98376.09;;;28.15;39.86
40982;BME280;26708;50.304;19.028;2022-07-29T13:32:48;98404.50;;;28.31;39.99
40982;BME280;26708;50.304;19.028;2022-07-29T13:35:49;98395.13;;;28.24;39.05
40982;BME280;26708;50.304;19.028;2022-07-29T13:38:51;98392.34;;;28.26;39.55
40982;BME280;26708;50.304;19.028;2022-07-29T13:41:52;98377.03;;;28.27;40.22
40982;BME280;26708;50.304;19.028;2022-07-29T13:44:53;98380.69;;;28.41;39.82
40982;BME280;26708;50.304;19.028;2022-07-29T13:47:55;98342.53;;;28.09;39.46
40982;BME280;26708;50.304;19.028;2022-07-29T13:50:56;98356.75;;;28.24;39.79
40982;BME280;26708;50.304;19.028;2022-07-29T13:53:57;98348.63;;;28.11;39.16
40982;BME280;26708;50.304;19.028;2022-07-29T13:56:59;98340.53;;;28.13;39.22
40982;BME280;26708;50.304;19.028;2022-07-29T14:00:01;98364.03;;;28.22;39.62
40982;BME280;26708;50.304;19.028;2022-07-29T14:03:09;98293.44;;;27.81;39.88
40982;BME280;26708;50.304;19.028;2022-07-29T14:06:10;98298.06;;;27.93;39.21
40982;BME280;26708;50.304;19.028;2022-07-29T14:09:15;98373.03;;;28.35;39.70
40982;BME280;26708;50.304;19.028;2022-07-29T14:12:17;98359.22;;;28.27;39.56
40982;BME280;26708;50.304;19.028;2022-07-29T14:15:20;98313.44;;;28.03;39.63
40982;BME280;26708;50.304;19.028;2022-07-29T14:18:21;98349.97;;;28.32;39.92
40982;BME280;26708;50.304;19.028;2022-07-29T14:21:22;98307.50;;;28.12;39.49
40982;BME280;26708;50.304;19.028;2022-07-29T14:24:25;98267.94;;;27.89;39.90
40982;BME280;26708;50.304;19.028;2022-07-29T14:27:26;98313.31;;;28.19;40.44
40982;BME280;26708;50.304;19.028;2022-07-29T14:30:28;98315.03;;;28.20;40.74
40982;BME280;26708;50.304;19.028;2022-07-29T14:33:29;98350.38;;;28.40;41.07
40982;BME280;26708;50.304;19.028;2022-07-29T14:36:30;98326.53;;;28.22;41.05
40982;BME280;26708;50.304;19.028;2022-07-29T14:39:31;98345.44;;;28.33;40.08
40982;BME280;26708;50.304;19.028;2022-07-29T14:42:32;98299.16;;;28.17;40.14
40982;BME280;26708;50.304;19.028;2022-07-29T14:45:34;98300.13;;;28.16;40.24
40982;BME280;26708;50.304;19.028;2022-07-29T14:48:35;98322.28;;;28.32;40.57
40982;BME280;26708;50.304;19.028;2022-07-29T14:51:37;98318.88;;;28.30;40.21
40982;BME280;26708;50.304;19.028;2022-07-29T14:54:38;98328.94;;;28.40;40.48
40982;BME280;26708;50.304;19.028;2022-07-29T14:57:39;98291.13;;;28.17;40.42
40982;BME280;26708;50.304;19.028;2022-07-29T15:00:41;98338.09;;;28.36;40.35
40982;BME280;26708;50.304;19.028;2022-07-29T15:03:42;98261.13;;;27.98;40.93
40982;BME280;26708;50.304;19.028;2022-07-29T15:06:43;98327.38;;;28.36;40.17
40982;BME280;26708;50.304;19.028;2022-07-29T15:09:45;98249.47;;;27.99;40.04
40982;BME280;26708;50.304;19.028;2022-07-29T15:12:46;98312.06;;;28.24;40.24
40982;BME280;26708;50.304;19.028;2022-07-29T15:15:47;98298.59;;;28.12;40.23
40982;BME280;26708;50.304;19.028;2022-07-29T15:18:48;98308.25;;;28.14;40.62
40982;BME280;26708;50.304;19.028;2022-07-29T15:21:48;98354.38;;;28.33;40.55
40982;BME280;26708;50.304;19.028;2022-07-29T15:24:49;98323.88;;;28.08;40.65
40982;BME280;26708;50.304;19.028;2022-07-29T15:27:50;98329.31;;;28.06;40.89
40982;BME280;26708;50.304;19.028;2022-07-29T15:30:51;98288.84;;;27.69;41.35
40982;BME280;26708;50.304;19.028;2022-07-29T15:33:52;98319.84;;;27.87;41.07
40982;BME280;26708;50.304;19.028;2022-07-29T15:36:52;98356.19;;;28.05;41.47
40982;BME280;26708;50.304;19.028;2022-07-29T15:39:53;98363.56;;;28.01;41.31
40982;BME280;26708;50.304;19.028;2022-07-29T15:42:55;98344.81;;;27.87;41.57
40982;BME280;26708;50.304;19.028;2022-07-29T15:45:56;98358.59;;;27.95;41.80
40982;BME280;26708;50.304;19.028;2022-07-29T15:49:16;98308.16;;;27.60;42.08
40982;BME280;26708;50.304;19.028;2022-07-29T15:52:18;98365.00;;;27.93;41.44
40982;BME280;26708;50.304;19.028;2022-07-29T15:55:19;98300.72;;;27.51;41.40
40982;BME280;26708;50.304;19.028;2022-07-29T15:58:20;98301.47;;;27.53;42.41
40982;BME280;26708;50.304;19.028;2022-07-29T16:01:22;98329.84;;;27.69;41.91
40982;BME280;26708;50.304;19.028;2022-07-29T16:04:24;98304.13;;;27.53;41.98
40982;BME280;26708;50.304;19.028;2022-07-29T16:07:25;98331.13;;;27.78;42.07
40982;BME280;26708;50.304;19.028;2022-07-29T16:10:26;98349.38;;;27.85;43.28
40982;BME280;26708;50.304;19.028;2022-07-29T16:13:27;98352.94;;;27.86;43.40
40982;BME280;26708;50.304;19.028;2022-07-29T16:16:30;98343.78;;;27.76;44.12
40982;BME280;26708;50.304;19.028;2022-07-29T16:19:31;98271.72;;;27.29;44.00
40982;BME280;26708;50.304;19.028;2022-07-29T16:22:32;98341.44;;;27.70;44.32
40982;BME280;26708;50.304;19.028;2022-07-29T16:25:33;98331.28;;;27.61;44.71
40982;BME280;26708;50.304;19.028;2022-07-29T16:28:34;98326.31;;;27.55;44.28
40982;BME280;26708;50.304;19.028;2022-07-29T16:31:35;98286.31;;;27.24;44.75
40982;BME280;26708;50.304;19.028;2022-07-29T16:34:36;98281.03;;;27.08;44.55
40982;BME280;26708;50.304;19.028;2022-07-29T16:37:37;98337.00;;;27.41;45.20
40982;BME280;26708;50.304;19.028;2022-07-29T16:40:40;98319.03;;;27.29;45.42
40982;BME280;26708;50.304;19.028;2022-07-29T16:44:07;98304.56;;;27.02;45.33
40982;BME280;26708;50.304;19.028;2022-07-29T16:47:17;98328.00;;;27.12;46.14